Time;durP1;ratioP1;P1;durP2;ratioP2;P2;SDS_P1;SDS_P2;PMS_P1;PMS_P2;Temp;Humidity;BMP_temperature;BMP_pressure;BME280_temperature;BME280_humidity;BME280_pressure;Samples;Min_cycle;Max_cycle;Signal;HPM_P1;HPM_P2
2022/05/27 00:02:15;;;;;;;5.10;0.90;;;;;;;13.08;87.90;101137.56;5021675;28;20069;-75
2022/05/27 00:04:40;;;;;;;3.63;0.65;;;;;;;13.20;87.55;101148.31;5016102;28;20063;-73
2022/05/27 00:07:06;;;;;;;1.33;0.70;;;;;;;13.16;87.46;101141.75;4981275;28;20058;-76
2022/05/27 00:09:33;;;;;;;4.03;0.82;;;;;;;13.17;87.65;101132.38;4993570;28;20050;-78
2022/05/27 00:12:11;;;;;;;3.30;0.85;;;;;;;13.29;87.81;101146.75;5006389;28;20030;-76
2022/05/27 00:15:38;;;;;;;7.35;1.13;;;;;;;13.29;87.97;101146.75;5013455;28;20026;-75
2022/05/27 00:42:25;;;;;;;2.90;0.63;;;;;;;13.27;90.53;101135.19;5050778;28;20106;-74
2022/05/27 00:45:33;;;;;;;2.05;0.50;;;;;;;13.15;90.54;101123.59;5038501;28;20506;-73
2022/05/27 00:48:50;;;;;;;;;;;;;;;;;;;;;
2022/05/27 00:55:02;;;;;;;2.90;0.77;;;;;;;13.28;90.69;101150.59;4986997;28;20043;-73
2022/05/27 00:58:13;;;;;;;;;;;;;;;;;;;;;
2022/05/27 01:01:23;;;;;;;1.58;0.60;;;;;;;13.31;91.05;101154.72;5050451;28;20088;-74
2022/05/27 01:07:23;;;;;;;1.05;0.70;;;;;;;13.33;90.89;101147.03;4989485;28;20090;-74
2022/05/27 01:14:36;;;;;;;;;;;;;;;;;;;;;
2022/05/27 01:21:31;;;;;;;2.97;0.63;;;;;;;13.28;91.66;101150.59;4858675;29;20070;-73
2022/05/27 01:24:53;;;;;;;0.82;0.63;;;;;;;13.27;91.34;101143.44;4855554;29;20065;-74
2022/05/27 01:27:19;;;;;;;1.00;0.60;;;;;;;13.28;91.43;101151.41;4838760;29;20042;-73
2022/05/27 01:30:08;;;;;;;1.60;0.43;;;;;;;13.31;91.62;101150.03;4860114;29;20055;-74
2022/05/27 01:32:44;;;;;;;1.38;0.30;;;;;;;13.33;91.47;101156.13;4998339;28;20036;-75
2022/05/27 01:35:30;;;;;;;2.55;0.50;;;;;;;13.33;91.19;101150.63;5046606;28;20036;-75
2022/05/27 01:38:08;;;;;;;0.45;0.43;;;;;;;13.34;91.38;101149.53;5038809;28;20064;-75
2022/05/27 01:41:06;;;;;;;0.73;0.40;;;;;;;13.34;91.24;101144.03;5043125;28;20045;-76
2022/05/27 01:44:02;;;;;;;2.05;0.60;;;;;;;13.34;91.46;101146.78;5012426;28;20037;-75
2022/05/27 01:46:31;;;;;;;0.98;0.40;;;;;;;13.31;91.25;101144.56;5048915;28;20411;-76
2022/05/27 01:49:31;;;;;;;2.47;0.50;;;;;;;13.34;92.04;101141.28;5031876;28;20117;-75
2022/05/27 01:52:53;;;;;;;1.08;0.40;;;;;;;13.32;92.14;101146.22;5039118;28;20013;-75
2022/05/27 01:55:27;;;;;;;3.28;0.50;;;;;;;13.33;91.81;101147.88;4995293;28;20038;-76
2022/05/27 01:58:19;;;;;;;0.50;0.40;;;;;;;13.29;92.35;101141.25;5034063;28;20049;-76
2022/05/27 02:00:48;;;;;;;2.70;0.60;;;;;;;13.25;92.19;101140.13;5026509;28;20033;-72
2022/05/27 02:03:21;;;;;;;0.50;0.35;;;;;;;13.27;92.15;101140.69;5051235;28;20386;-75
2022/05/27 02:05:56;;;;;;;0.55;0.25;;;;;;;13.25;92.52;101140.13;5048798;28;20012;-74
2022/05/27 02:08:30;;;;;;;0.20;0.20;;;;;;;13.24;92.35;101149.47;5045006;28;20021;-76
2022/05/27 02:11:20;;;;;;;1.27;0.50;;;;;;;13.20;92.06;101137.34;5051745;28;20020;-75
2022/05/27 02:13:45;;;;;;;0.75;0.40;;;;;;;13.20;92.29;101137.34;5038410;28;20044;-75
2022/05/27 02:16:17;;;;;;;1.13;0.35;;;;;;;13.15;92.28;101131.84;5054387;28;20413;-75
2022/05/27 02:18:57;;;;;;;0.95;0.30;;;;;;;13.07;92.75;101133.19;5034886;28;20021;-76
2022/05/27 02:21:29;;;;;;;0.20;0.20;;;;;;;12.98;93.58;101140.25;5047766;28;20025;-76
2022/05/27 02:24:01;;;;;;;0.20;0.20;;;;;;;12.90;93.63;101133.34;5042865;28;20026;-74
2022/05/27 02:26:31;;;;;;;0.75;0.30;;;;;;;12.90;93.99;101136.06;5050205;28;20039;-75
2022/05/27 02:29:02;;;;;;;0.20;0.20;;;;;;;12.81;94.07;101124.75;5041884;28;20028;-75
2022/05/27 02:31:35;;;;;;;0.32;0.20;;;;;;;12.75;94.66;101123.91;5043530;28;20013;-76
2022/05/27 02:37:25;;;;;;;0.20;0.10;;;;;;;12.78;95.00;101140.94;5044656;28;20116;-75
2022/05/27 02:39:53;;;;;;;1.35;0.13;;;;;;;12.91;94.24;101151.47;5008084;28;20439;-76
2022/05/27 02:42:56;;;;;;;0.20;0.20;;;;;;;12.99;93.14;101147.38;5035625;28;20031;-76
2022/05/27 02:45:39;;;;;;;0.20;0.13;;;;;;;13.03;92.26;101132.88;5010696;28;20468;-76
2022/05/27 02:48:29;;;;;;;0.20;0.20;;;;;;;13.08;91.95;101141.16;5034045;28;20013;-75
2022/05/27 02:51:21;;;;;;;0.80;0.20;;;;;;;13.14;91.39;101146.66;5006237;28;20508;-76
2022/05/27 02:54:13;;;;;;;0.10;0.10;;;;;;;13.14;91.78;101139.25;5025377;28;20094;-76
2022/05/27 02:57:01;;;;;;;0.10;0.10;;;;;;;13.19;91.41;101147.50;5004679;28;20026;-77
2022/05/27 02:59:32;;;;;;;0.10;0.10;;;;;;;13.20;91.16;101142.84;4995450;28;20073;-77
2022/05/27 03:02:24;;;;;;;0.20;0.20;;;;;;;13.26;90.66;101150.03;5023870;28;20080;-77
2022/05/27 03:04:54;;;;;;;0.22;0.20;;;;;;;13.28;90.91;101145.91;5021801;28;20392;-77
2022/05/27 03:07:19;;;;;;;0.20;0.20;;;;;;;13.33;90.08;101152.53;5021396;28;20029;-77
2022/05/27 03:10:18;;;;;;;0.20;0.20;;;;;;;13.28;89.62;101145.09;5020678;28;20075;-77
2022/05/27 03:13:08;;;;;;;0.40;0.20;;;;;;;13.15;89.95;101145.56;5016973;28;20102;-76
2022/05/27 03:16:04;;;;;;;0.65;0.32;;;;;;;13.05;90.08;101152.66;5013224;28;20105;-76
2022/05/27 03:18:44;;;;;;;;;;;;;;;13.02;90.01;101157.84;5021954;28;20495;-78
2022/05/27 03:21:16;;;;;;;0.77;0.30;;;;;;;12.91;90.60;101156.97;5019817;28;19909;-76
2022/05/27 03:23:56;;;;;;;0.45;0.35;;;;;;;12.89;90.81;101159.13;5028846;28;20060;-77
2022/05/27 03:27:06;;;;;;;0.30;0.30;;;;;;;12.89;90.64;101150.88;5016698;28;20044;-76
2022/05/27 03:29:56;;;;;;;0.60;0.30;;;;;;;12.88;90.90;101157.50;5029111;28;20056;-76
2022/05/27 03:32:30;;;;;;;0.45;0.30;;;;;;;12.75;90.75;101148.59;5006649;28;20035;-75
2022/05/27 03:35:13;;;;;;;0.28;0.28;;;;;;;12.79;91.57;101159.03;5006194;28;20033;-76
2022/05/27 03:37:44;;;;;;;0.60;0.30;;;;;;;12.74;91.36;101152.41;5023774;28;20061;-75
2022/05/27 03:40:30;;;;;;;1.30;0.30;;;;;;;12.71;92.19;101165.84;5016479;28;20057;-75
2022/05/27 03:42:57;;;;;;;1.63;0.60;;;;;;;12.64;92.05;101152.34;5039788;28;20427;-75
2022/05/27 03:45:24;;;;;;;1.08;0.45;;;;;;;12.73;91.74;101161.75;5048111;28;20060;-77
2022/05/27 03:47:51;;;;;;;0.68;0.50;;;;;;;12.73;90.88;101161.75;5043545;28;20033;-76
2022/05/27 03:50:26;;;;;;;1.02;0.70;;;;;;;12.57;90.96;101157.22;5023125;28;20033;-76
2022/05/27 03:52:54;;;;;;;0.98;0.65;;;;;;;12.47;91.24;101165.38;5023253;28;20488;-75
2022/05/27 03:55:26;;;;;;;0.70;0.57;;;;;;;12.32;92.15;101166.88;5042647;28;20010;-76
2022/05/27 03:57:53;;;;;;;1.95;0.88;;;;;;;12.25;91.89;101158.06;5027862;28;20060;-78
2022/05/27 04:00:23;;;;;;;7.88;0.98;;;;;;;12.26;92.09;101167.91;5026544;28;20069;-76
2022/05/27 04:02:49;;;;;;;1.65;1.20;;;;;;;12.20;92.81;101163.47;5026064;28;20048;-75
2022/05/27 04:05:16;;;;;;;2.42;1.23;;;;;;;12.08;93.37;101154.59;5026616;28;20146;-75
2022/05/27 04:07:49;;;;;;;2.45;1.30;;;;;;;11.99;93.16;101152.31;5042957;28;20025;-74
2022/05/27 04:10:15;;;;;;;2.50;1.30;;;;;;;11.92;93.60;101168.09;5028536;28;20084;-75
2022/05/27 04:12:42;;;;;;;3.05;1.83;;;;;;;11.83;94.16;101158.69;5012896;28;20040;-75
2022/05/27 04:15:12;;;;;;;1.60;1.15;;;;;;;11.71;94.23;101161.56;5010250;28;20029;-75
2022/05/27 04:17:40;;;;;;;2.97;1.80;;;;;;;11.64;94.72;101166.41;5028423;28;20036;-75
2022/05/27 04:20:15;;;;;;;3.08;1.83;;;;;;;11.53;95.00;101169.00;5009734;28;20037;-76
2022/05/27 04:22:44;;;;;;;2.67;1.60;;;;;;;11.54;94.57;101180.78;5024713;28;20036;-74
2022/05/27 04:25:11;;;;;;;5.05;1.95;;;;;;;11.44;94.89;101166.97;5025167;28;20045;-74
2022/05/27 04:28:05;;;;;;;4.45;2.10;;;;;;;11.47;94.69;101171.94;5040079;28;20060;-75
2022/05/27 04:30:33;;;;;;;4.45;2.60;;;;;;;11.40;94.92;101172.09;5039853;28;20029;-75
2022/05/27 04:33:00;;;;;;;5.35;2.70;;;;;;;11.45;94.48;101180.41;5011958;28;20059;-72
2022/05/27 04:35:28;;;;;;;3.72;2.70;;;;;;;11.39;94.13;101181.41;5042828;28;20029;-75
2022/05/27 04:37:54;;;;;;;3.40;2.42;;;;;;;11.34;94.95;101184.88;5025240;28;20029;-75
2022/05/27 04:40:22;;;;;;;5.78;2.67;;;;;;;11.30;94.07;101183.75;5023496;28;20044;-75
2022/05/27 04:42:54;;;;;;;4.25;2.47;;;;;;;11.32;94.34;101186.25;5041428;28;20602;-72
2022/05/27 04:45:21;;;;;;;3.53;2.67;;;;;;;11.34;93.84;101190.38;5042723;28;20041;-74
2022/05/27 04:47:48;;;;;;;3.90;2.75;;;;;;;11.25;94.34;101180.94;5026069;28;20022;-76
2022/05/27 04:50:34;;;;;;;6.78;2.35;;;;;;;11.26;94.00;101187.25;5039574;28;20486;-75
2022/05/27 04:53:00;;;;;;;3.80;2.88;;;;;;;11.32;94.07;101200.75;5022195;28;20057;-75
2022/05/27 04:55:26;;;;;;;3.28;2.38;;;;;;;11.31;93.99;101196.34;5038161;28;20021;-75
2022/05/27 04:58:13;;;;;;;4.18;2.88;;;;;;;11.27;93.48;101189.75;5026919;28;20017;-76
2022/05/27 05:00:46;;;;;;;3.42;2.25;;;;;;;11.31;93.34;101201.81;5043053;28;20029;-76
2022/05/27 05:03:37;;;;;;;3.47;2.72;;;;;;;11.30;94.02;101189.25;5038928;28;20045;-76
2022/05/27 05:06:03;;;;;;;5.03;2.53;;;;;;;11.41;92.99;101200.34;5021389;28;20098;-76
2022/05/27 05:08:33;;;;;;;9.55;3.10;;;;;;;11.35;92.83;101189.28;5016504;28;20108;-75
2022/05/27 05:11:04;;;;;;;4.55;2.53;;;;;;;11.44;93.10;101208.03;5025727;28;20033;-74
2022/05/27 05:13:31;;;;;;;8.32;3.50;;;;;;;11.49;93.36;101211.69;5047380;28;20021;-75
2022/05/27 05:15:57;;;;;;;5.38;3.63;;;;;;;11.54;92.93;101224.59;5041001;28;20055;-74
2022/05/27 05:18:23;;;;;;;6.25;3.20;;;;;;;11.55;92.84;101218.06;5036746;28;20034;-74
2022/05/27 05:20:52;;;;;;;9.52;3.97;;;;;;;11.55;92.56;101209.00;5021810;28;20020;-76
2022/05/27 05:23:18;;;;;;;9.13;3.85;;;;;;;11.64;92.17;101221.19;5012263;28;20044;-77
2022/05/27 05:25:43;;;;;;;7.22;3.40;;;;;;;11.64;92.04;101216.53;5008779;28;20168;-74
2022/05/27 05:28:09;;;;;;;8.43;3.60;;;;;;;11.77;91.93;101230.91;5015230;28;20025;-75
2022/05/27 05:30:35;;;;;;;6.10;3.80;;;;;;;11.82;91.67;101233.75;5042130;28;20085;-75
2022/05/27 05:33:00;;;;;;;9.48;3.72;;;;;;;11.87;91.08;101242.84;5035473;28;20109;-74
2022/05/27 05:35:26;;;;;;;4.53;3.35;;;;;;;11.92;91.33;101239.34;5040010;28;20053;-74
2022/05/27 05:37:52;;;;;;;6.18;4.25;;;;;;;11.96;90.92;101240.53;5022874;28;20026;-75
2022/05/27 05:40:18;;;;;;;8.48;4.53;;;;;;;12.01;90.12;101243.31;5025375;28;20061;-77
2022/05/27 05:42:46;;;;;;;6.55;4.40;;;;;;;12.01;90.26;101234.28;5020910;28;20029;-76
2022/05/27 05:45:14;;;;;;;5.97;3.70;;;;;;;12.11;90.11;101248.09;5016488;28;20030;-77
2022/05/27 05:47:40;;;;;;;10.40;4.28;;;;;;;12.14;89.30;101246.78;5026041;28;20029;-76
2022/05/27 05:50:07;;;;;;;9.80;4.45;;;;;;;12.15;89.37;101242.91;5029134;28;20029;-75
2022/05/27 05:52:46;;;;;;;12.07;4.05;;;;;;;12.21;89.29;101245.47;5040993;28;20068;-77
2022/05/27 05:55:15;;;;;;;8.25;4.80;;;;;;;12.32;88.75;101254.63;5034792;28;20116;-74
2022/05/27 05:57:42;;;;;;;8.10;4.43;;;;;;;12.35;88.58;101264.28;5017263;28;20052;-76
2022/05/27 06:00:28;;;;;;;10.02;4.40;;;;;;;12.32;88.85;101265.59;5040919;28;20093;-75
2022/05/27 06:02:54;;;;;;;10.45;4.65;;;;;;;12.38;88.08;101272.81;5043315;28;20101;-75
2022/05/27 06:05:21;;;;;;;12.25;4.35;;;;;;;12.43;88.42;101271.22;5044836;28;20022;-76
2022/05/27 06:08:23;;;;;;;5.40;3.88;;;;;;;12.55;87.82;101282.88;5048893;28;20029;-76
2022/05/27 06:11:30;;;;;;;9.18;4.07;;;;;;;12.63;87.23;101281.56;5040504;28;20717;-75
2022/05/27 06:13:59;;;;;;;6.45;4.60;;;;;;;12.64;86.41;101273.06;5025751;28;20650;-76
2022/05/27 06:16:25;;;;;;;7.47;4.22;;;;;;;12.66;85.79;101279.16;5012272;28;20073;-76
2022/05/27 06:18:51;;;;;;;7.38;3.90;;;;;;;12.77;85.05;101287.47;5010061;28;20037;-76
2022/05/27 06:21:17;;;;;;;11.15;3.33;;;;;;;12.97;84.79;101286.84;5013551;28;20064;-76
2022/05/27 06:23:44;;;;;;;7.75;3.20;;;;;;;13.18;84.58;101282.34;5025089;28;20022;-73
2022/05/27 06:26:11;;;;;;;9.35;3.75;;;;;;;13.35;83.59;101288.56;5026456;28;20036;-73
2022/05/27 06:34:24;;;;;;;6.40;2.70;;;;;;;14.46;74.97;101299.56;5045858;28;20036;-74
2022/05/27 06:37:11;;;;;;;8.68;3.08;;;;;;;14.89;73.63;101301.31;5046455;28;20120;-75
2022/05/27 06:39:38;;;;;;;10.30;2.97;;;;;;;15.47;70.90;101304.63;5044222;28;20053;-76
2022/05/27 07:06:26;;;;;;;3.15;1.02;;;;;;;17.37;63.31;101349.84;5043807;28;20037;-75
2022/05/27 07:08:51;;;;;;;7.05;1.80;;;;;;;17.55;60.14;101333.66;5040559;28;20018;-76
2022/05/27 07:11:17;;;;;;;6.93;1.60;;;;;;;17.77;60.65;101347.84;5044938;28;20084;-76
2022/05/27 07:13:42;;;;;;;8.90;1.88;;;;;;;18.05;59.01;101347.31;5026590;28;20117;-75
2022/05/27 07:16:08;;;;;;;6.03;1.15;;;;;;;17.94;57.67;101333.56;5042904;28;20383;-75
2022/05/27 07:18:33;;;;;;;3.80;1.45;;;;;;;17.95;57.93;101349.06;5023357;28;20025;-74
2022/05/27 07:31:05;;;;;;;7.07;1.83;;;;;;;18.50;53.96;101356.19;5044073;28;20079;-73
2022/05/27 07:33:33;;;;;;;4.60;1.70;;;;;;;18.71;52.90;101369.75;5007697;28;20033;-74
2022/05/27 07:35:59;;;;;;;6.15;1.58;;;;;;;18.72;52.33;101357.53;5036513;28;20463;-73
2022/05/27 07:38:24;;;;;;;11.00;1.55;;;;;;;18.84;51.38;101366.25;5002678;28;20045;-75
2022/05/27 07:40:50;;;;;;;6.70;1.52;;;;;;;18.87;51.14;101362.91;5041720;28;20060;-75
2022/05/27 07:43:16;;;;;;;5.45;1.65;;;;;;;18.55;50.01;101375.47;5040621;28;20043;-73
2022/05/27 07:45:43;;;;;;;7.30;1.92;;;;;;;17.94;50.04;101388.91;5040013;28;20033;-74
2022/05/27 07:48:09;;;;;;;6.00;1.63;;;;;;;17.50;51.16;101376.03;5038392;28;20033;-74
2022/05/27 07:50:35;;;;;;;8.43;2.13;;;;;;;17.10;50.63;101383.53;5024218;28;20025;-72
2022/05/27 07:53:01;;;;;;;10.23;2.10;;;;;;;16.67;51.51;101385.94;5040600;28;20037;-72
2022/05/27 07:55:27;;;;;;;11.38;2.00;;;;;;;16.31;51.94;101383.34;5033711;28;20540;-73
2022/05/27 07:57:53;;;;;;;7.07;1.58;;;;;;;16.07;53.44;101380.38;5010393;28;20030;-74
2022/05/27 08:00:22;;;;;;;6.00;1.27;;;;;;;15.99;53.82;101388.13;5022632;28;20040;-73
2022/05/27 08:02:48;;;;;;;13.63;1.80;;;;;;;15.90;52.88;101378.75;5040304;28;20036;-72
2022/05/27 08:05:19;;;;;;;10.70;2.10;;;;;;;15.69;53.32;101377.94;5038707;28;20124;-73
2022/05/27 08:07:46;;;;;;;11.43;1.83;;;;;;;15.65;54.09;101383.19;5026885;28;20009;-73
2022/05/27 08:10:14;;;;;;;6.15;1.88;;;;;;;15.61;53.04;101381.22;5027483;28;20017;-74
2022/05/27 08:12:40;;;;;;;6.93;1.80;;;;;;;15.58;52.51;101379.03;5040125;28;20025;-74
2022/05/27 08:15:08;;;;;;;9.65;1.75;;;;;;;15.41;52.34;101377.38;5024064;28;20094;-73
2022/05/27 08:17:34;;;;;;;10.80;2.28;;;;;;;15.33;52.43;101372.41;5039082;28;20028;-74
2022/05/27 08:20:00;;;;;;;6.97;1.70;;;;;;;15.45;53.38;101381.25;5037793;28;20048;-75
2022/05/27 08:22:25;;;;;;;10.90;2.13;;;;;;;15.58;52.95;101376.28;5042262;28;20021;-73
2022/05/27 08:24:51;;;;;;;10.60;2.45;;;;;;;15.53;52.31;101368.84;5017555;28;20033;-73
2022/05/27 08:27:16;;;;;;;8.38;1.90;;;;;;;15.50;53.05;101381.25;4951886;28;1305368;-74
2022/05/27 08:43:27;;;;;;;8.77;2.35;;;;;;;15.59;48.09;101400.00;1200786;26;19926;-78
2022/05/27 08:46:48;;;;;;;14.07;2.33;;;;;;;15.61;49.01;101392.25;4979160;23;20028;-81
2022/05/27 08:50:25;;;;;;;6.93;1.58;;;;;;;15.78;49.37;101391.97;5041639;27;20419;-75
2022/05/27 08:52:58;;;;;;;13.27;1.80;;;;;;;15.85;49.81;101381.53;5048302;28;20463;-75
2022/05/27 09:01:26;;;;;;;11.15;2.33;;;;;;;16.29;50.50;101389.13;5048590;28;20040;-74
2022/05/27 09:04:00;;;;;;;9.93;2.10;;;;;;;16.40;50.58;101389.94;5052826;28;20035;-73
2022/05/27 09:06:35;;;;;;;9.30;2.10;;;;;;;16.52;48.90;101384.91;5054203;28;20041;-74
2022/05/27 09:09:02;;;;;;;12.30;2.20;;;;;;;16.65;48.90;101402.00;5061702;28;20009;-75
2022/05/27 09:11:42;;;;;;;19.63;2.08;;;;;;;16.58;47.25;101414.16;5064589;28;20033;-79
2022/05/27 09:14:19;;;;;;;10.20;1.83;;;;;;;16.49;47.76;101396.53;5056572;28;20056;-74
2022/05/27 09:17:01;;;;;;;10.40;2.63;;;;;;;16.48;48.16;101389.34;5048095;28;20104;-75
2022/05/27 09:19:52;;;;;;;8.95;1.90;;;;;;;16.63;48.22;101393.16;5049628;28;20033;-74
2022/05/27 09:22:26;;;;;;;13.93;2.17;;;;;;;16.79;48.04;101396.66;5051231;28;20029;-73
2022/05/27 09:25:15;;;;;;;10.70;1.95;;;;;;;16.87;47.74;101399.69;5047026;28;20021;-72
2022/05/27 09:28:15;;;;;;;12.35;2.00;;;;;;;17.06;49.33;101401.78;5043516;28;20021;-73
2022/05/27 09:30:41;;;;;;;11.73;1.88;;;;;;;17.24;46.43;101390.06;5049519;28;20460;-72
2022/05/27 09:33:10;;;;;;;8.60;1.50;;;;;;;17.24;47.31;101395.59;5054391;28;20032;-71
2022/05/27 09:35:41;;;;;;;14.45;2.05;;;;;;;17.39;45.68;101393.81;5051918;28;20025;-73
2022/05/27 09:38:09;;;;;;;6.22;1.73;;;;;;;17.47;46.52;101393.19;5053810;28;20080;-74
2022/05/27 09:40:46;;;;;;;13.35;2.13;;;;;;;17.42;45.42;101390.47;5071394;28;20067;-72
2022/05/27 09:43:30;;;;;;;14.32;2.20;;;;;;;17.20;44.66;101386.22;5040837;28;20109;-73
2022/05/27 09:46:00;;;;;;;7.57;1.87;;;;;;;17.04;45.50;101381.88;5042410;28;20112;-73
2022/05/27 09:48:26;;;;;;;9.20;1.95;;;;;;;17.46;47.89;101394.31;5041484;28;20365;-72
2022/05/27 09:50:52;;;;;;;4.97;1.90;;;;;;;18.01;45.94;101396.88;5024628;28;20058;-73
2022/05/27 09:53:24;;;;;;;10.73;2.33;;;;;;;18.61;44.14;101399.22;5027665;28;20030;-74
2022/05/27 09:55:59;;;;;;;13.18;2.30;;;;;;;20.41;40.54;101398.25;5034051;28;20139;-73
2022/05/27 09:58:28;;;;;;;11.73;2.00;;;;;;;22.70;36.13;101413.47;5034462;28;20057;-72
2022/05/27 10:00:54;;;;;;;9.57;1.65;;;;;;;24.54;32.86;101405.66;5027223;28;20092;-74
2022/05/27 10:03:26;;;;;;;9.02;2.63;;;;;;;25.91;29.96;101433.22;5012770;28;20045;-72
2022/05/27 10:06:00;;;;;;;12.55;1.92;;;;;;;26.69;28.33;101430.66;5034963;28;20051;-73
2022/05/27 10:08:39;;;;;;;7.78;1.80;;;;;;;28.08;27.40;101432.28;5021610;28;20117;-75
2022/05/27 10:11:18;;;;;;;6.47;1.60;;;;;;;29.50;26.44;101423.09;5022986;28;20114;-73
2022/05/27 10:13:44;;;;;;;12.45;2.33;;;;;;;30.59;23.49;101427.47;5022625;28;20060;-73
2022/05/27 10:16:22;;;;;;;10.68;2.13;;;;;;;30.84;21.88;101431.84;5021497;28;20069;-72
2022/05/27 10:18:47;;;;;;;10.98;2.10;;;;;;;30.06;21.13;101410.44;5020828;28;20084;-73
2022/05/27 10:21:20;;;;;;;7.38;1.60;;;;;;;29.92;22.90;101402.53;5013807;28;20133;-73
2022/05/27 10:23:50;;;;;;;6.20;1.73;;;;;;;31.17;22.66;101407.72;5022022;28;20022;-73
2022/05/27 10:26:26;;;;;;;7.93;1.83;;;;;;;32.51;19.77;101411.47;5016421;28;20093;-71
2022/05/27 10:29:07;;;;;;;9.55;2.08;;;;;;;33.19;20.62;101411.06;5028503;28;20029;-73
2022/05/27 10:31:34;;;;;;;7.57;1.90;;;;;;;33.77;20.34;101405.59;5013739;28;20037;-74
2022/05/27 10:34:00;;;;;;;6.07;2.03;;;;;;;34.32;20.47;101409.31;5019777;28;20095;-74
2022/05/27 10:36:55;;;;;;;13.10;2.13;;;;;;;35.06;18.72;101418.88;5011073;28;20037;-74
2022/05/27 10:39:39;;;;;;;9.30;2.05;;;;;;;35.35;17.76;101417.97;5019739;28;20022;-73
2022/05/27 10:42:20;;;;;;;;;;;;;;;36.41;15.83;101411.94;5014996;28;20039;-74
2022/05/27 10:45:11;;;;;;;7.95;2.38;;;;;;;36.68;16.82;101417.75;5032571;28;19964;-72
2022/05/27 10:47:40;;;;;;;9.10;1.90;;;;;;;37.01;16.66;101418.19;5027254;28;20037;-73
2022/05/27 10:50:31;;;;;;;8.68;2.28;;;;;;;36.38;16.12;101414.81;5019056;28;20038;-73
2022/05/27 10:53:22;;;;;;;7.28;2.08;;;;;;;37.08;16.40;101416.50;5028132;28;20034;-74
2022/05/27 10:56:16;;;;;;;17.75;2.80;;;;;;;37.36;14.55;101413.28;5013335;28;20033;-74
2022/05/27 11:29:27;;;;;;;7.38;2.15;;;;;;;42.16;12.72;101404.78;5021071;28;20033;-73
2022/05/27 11:32:05;;;;;;;7.25;2.50;;;;;;;42.68;10.81;101402.59;5028053;28;20065;-72
2022/05/27 11:34:39;;;;;;;3.78;1.75;;;;;;;40.78;11.81;101405.38;5018068;28;20017;-73
2022/05/27 11:37:39;;;;;;;9.07;2.05;;;;;;;40.75;12.25;101403.44;5017815;28;20415;-73
2022/05/27 11:40:17;;;;;;;8.02;2.17;;;;;;;41.80;12.02;101406.84;5019288;28;20026;-72
2022/05/27 11:43:23;;;;;;;4.68;1.67;;;;;;;42.93;12.49;101409.47;5015521;28;20110;-73
2022/05/27 11:45:57;;;;;;;10.32;2.00;;;;;;;42.95;10.31;101399.09;5028532;28;20079;-74
2022/05/27 11:48:47;;;;;;;7.82;2.50;;;;;;;43.19;10.40;101398.63;5017049;28;20033;-73
2022/05/27 11:51:16;;;;;;;5.75;2.08;;;;;;;43.65;10.79;101400.91;5029465;28;20049;-73
2022/05/27 11:54:26;;;;;;;8.30;1.98;;;;;;;44.19;10.73;101393.69;5014770;28;20053;-73
2022/05/27 11:57:46;;;;;;;6.57;2.13;;;;;;;43.92;9.57;101403.88;4979502;28;20027;-70
2022/05/27 12:00:40;;;;;;;11.30;2.50;;;;;;;41.83;10.58;101400.16;5017435;28;20040;-71
2022/05/27 12:03:45;;;;;;;10.25;2.55;;;;;;;40.98;11.31;101390.13;5071503;22;20121;-73
2022/05/27 12:06:16;;;;;;;11.60;2.13;;;;;;;42.43;11.21;101389.91;5061428;28;20048;-74
2022/05/27 12:09:01;;;;;;;5.85;1.80;;;;;;;43.25;10.92;101405.34;5053122;28;20097;-74
2022/05/27 12:11:33;;;;;;;8.25;2.58;;;;;;;43.91;10.54;101398.59;5037098;28;20029;-73
2022/05/27 12:14:19;;;;;;;6.77;1.97;;;;;;;45.06;9.56;101395.56;5039733;28;20023;-73
2022/05/27 12:16:48;;;;;;;7.28;2.53;;;;;;;45.44;8.72;101403.63;5034848;28;20310;-74
2022/05/27 12:19:24;;;;;;;6.32;1.65;;;;;;;45.41;9.70;101389.34;5040745;28;20103;-73
2022/05/27 12:22:12;;;;;;;11.82;2.10;;;;;;;46.04;9.31;101385.81;5048564;28;20075;-74
2022/05/27 12:24:43;;;;;;;10.25;2.63;;;;;;;45.75;7.98;101393.03;5049507;28;20024;-75
2022/05/27 12:27:12;;;;;;;12.60;2.78;;;;;;;43.77;9.50;101379.84;5057914;28;20036;-76
2022/05/27 12:29:47;;;;;;;6.20;1.80;;;;;;;44.16;9.61;101379.41;5049845;28;21450;-75
2022/05/27 12:32:14;;;;;;;8.73;2.00;;;;;;;45.30;8.72;101384.91;5049069;28;20135;-73
2022/05/27 12:34:45;;;;;;;11.48;2.45;;;;;;;45.38;8.48;101382.47;5021101;28;20045;-74
2022/05/27 12:37:28;;;;;;;11.90;2.38;;;;;;;45.78;8.26;101371.84;5058946;28;20028;-75
2022/05/27 12:40:13;;;;;;;;;;;;;;;46.40;8.09;101369.50;5033704;28;20109;-74
2022/05/27 12:42:44;;;;;;;7.10;2.10;;;;;;;46.29;7.72;101382.44;5050778;28;19908;-74
2022/05/27 12:45:34;;;;;;;7.10;2.40;;;;;;;47.24;8.11;101375.97;5043587;28;20083;-76
2022/05/27 12:48:07;;;;;;;11.55;2.15;;;;;;;47.84;6.33;101352.66;5061115;28;20032;-73
2022/05/27 12:50:40;;;;;;;9.77;2.38;;;;;;;46.90;7.15;101369.63;5059934;28;20032;-79
2022/05/27 12:53:46;;;;;;;7.80;2.28;;;;;;;47.06;7.67;101353.09;5041443;28;20053;-79
2022/05/27 13:02:37;;;;;;;4.85;1.75;;;;;;;47.26;7.84;101366.78;5060921;28;20067;-75
2022/05/27 13:05:05;;;;;;;6.97;2.20;;;;;;;48.74;6.96;101352.91;5039273;28;20036;-75
2022/05/27 13:07:35;;;;;;;6.93;2.30;;;;;;;49.77;6.63;101367.66;5042928;28;20024;-76
2022/05/27 13:10:16;;;;;;;3.55;1.50;;;;;;;51.11;7.18;101364.81;5045553;28;20020;-77
2022/05/27 13:12:53;;;;;;;7.40;2.42;;;;;;;51.23;5.30;101365.56;5057614;28;20056;-74
2022/05/27 13:15:31;;;;;;;7.72;2.40;;;;;;;50.53;5.36;101364.47;5044613;28;20022;-75
2022/05/27 13:18:31;;;;;;;5.60;1.80;;;;;;;49.09;6.31;101355.56;5042906;28;20124;-74
2022/05/27 13:21:16;;;;;;;8.18;2.67;;;;;;;47.64;6.64;101350.53;5041642;28;20029;-74
2022/05/27 13:23:53;;;;;;;12.77;2.92;;;;;;;45.85;7.71;101351.28;5024431;28;20041;-76
2022/05/27 13:26:40;;;;;;;7.07;2.40;;;;;;;46.51;7.80;101343.66;5057338;28;20031;-74
2022/05/27 13:29:26;;;;;;;10.13;1.80;;;;;;;46.49;8.37;101352.03;5056781;28;20033;-75
2022/05/27 13:32:09;;;;;;;10.00;2.92;;;;;;;47.52;7.62;101344.59;5055753;28;20027;-75
2022/05/27 13:34:46;;;;;;;8.27;2.25;;;;;;;47.97;6.96;101346.50;5029250;28;20032;-75
2022/05/27 13:37:37;;;;;;;6.97;1.90;;;;;;;48.40;7.43;101352.56;5065059;28;20041;-75
2022/05/27 13:40:10;;;;;;;5.88;2.00;;;;;;;48.75;6.62;101340.00;5032296;28;20104;-75
2022/05/27 13:42:42;;;;;;;9.95;2.40;;;;;;;48.23;6.22;101332.06;5039434;28;20017;-75
2022/05/27 13:45:22;;;;;;;5.30;1.58;;;;;;;46.86;7.83;101335.13;5040171;28;20029;-76
2022/05/27 13:48:11;;;;;;;8.27;2.33;;;;;;;46.43;7.20;101337.47;5061525;28;20017;-74
2022/05/27 13:50:40;;;;;;;10.00;2.42;;;;;;;45.20;7.99;101319.03;5053704;28;20033;-76
2022/05/27 13:53:20;;;;;;;8.30;2.20;;;;;;;45.15;8.33;101332.06;5068335;28;20090;-73
2022/05/27 13:55:49;;;;;;;8.35;2.58;;;;;;;45.57;8.21;101333.31;5055873;28;20513;-75
2022/05/27 13:58:16;;;;;;;8.98;1.90;;;;;;;47.16;7.88;101335.09;5058845;28;20037;-74
2022/05/27 14:00:44;;;;;;;7.72;1.77;;;;;;;48.48;6.91;101342.09;5037406;28;20029;-75
2022/05/27 14:03:24;;;;;;;4.85;1.80;;;;;;;48.94;6.82;101331.72;5038146;28;20050;-75
2022/05/27 14:06:02;;;;;;;8.27;1.77;;;;;;;50.42;5.99;101339.88;5019346;28;20040;-76
2022/05/27 14:08:44;;;;;;;4.28;2.00;;;;;;;50.42;5.48;101327.44;5031439;28;20168;-76
2022/05/27 14:11:17;;;;;;;10.32;2.83;;;;;;;50.10;5.88;101342.94;5037609;28;20030;-75
2022/05/27 14:13:49;;;;;;;9.02;2.08;;;;;;;49.70;6.04;101326.69;5034990;28;20039;-75
2022/05/27 14:16:23;;;;;;;7.63;2.30;;;;;;;48.72;6.04;101320.72;5034294;28;20120;-75
2022/05/27 14:18:48;;;;;;;7.57;2.28;;;;;;;46.59;7.34;101321.75;5035772;28;20033;-74
2022/05/27 14:24:00;;;;;;;6.70;2.08;;;;;;;47.37;7.04;101318.59;5039530;28;20076;-75
2022/05/27 14:26:34;;;;;;;6.80;2.15;;;;;;;46.90;7.11;101313.84;5021928;28;20010;-75
2022/05/27 14:29:01;;;;;;;6.47;1.83;;;;;;;47.40;7.15;101315.97;5039208;28;20025;-74
2022/05/27 14:31:36;;;;;;;8.88;2.40;;;;;;;47.61;7.18;101316.78;5018589;28;20435;-74
2022/05/27 14:34:05;;;;;;;7.05;2.00;;;;;;;48.33;7.28;101324.00;5036551;28;20075;-75
2022/05/27 14:36:50;;;;;;;6.55;1.35;;;;;;;50.05;6.88;101329.19;5038969;28;20059;-77